createdAt,value
2023-03-27T00:00:20.456Z,41.07
2023-03-27T00:03:25.770Z,41.12
2023-03-27T00:06:28.669Z,40.78
2023-03-27T00:09:32.147Z,41.16
2023-03-27T00:12:36.777Z,41.62
2023-03-27T00:15:40.980Z,41.67
2023-03-27T00:18:47.479Z,41.56
2023-03-27T00:21:50.243Z,41.49
2023-03-27T00:24:53.049Z,41.41
2023-03-27T00:27:57.332Z,41.52
2023-03-27T00:31:02.748Z,41.59
2023-03-27T00:34:05.698Z,41.34
2023-03-27T00:37:08.497Z,41.43
2023-03-27T00:40:17.809Z,41.56
2023-03-27T00:43:21.833Z,41.28
2023-03-27T00:46:39.149Z,41.23
2023-03-27T00:49:42.009Z,41.26
2023-03-27T00:52:48.827Z,41.12
2023-03-27T00:55:54.117Z,41.28
2023-03-27T00:58:58.598Z,41.11
2023-03-27T01:02:04.416Z,41.29
2023-03-27T01:05:10.404Z,41.16
2023-03-27T01:08:18.937Z,41.18
2023-03-27T01:11:30.907Z,41.25
2023-03-27T01:14:38.658Z,41.21
2023-03-27T01:17:51.159Z,41.18
2023-03-27T01:21:15.602Z,41.30
2023-03-27T01:24:34.197Z,41.28
2023-03-27T01:27:51.601Z,41.13
2023-03-27T01:31:00.110Z,41.13
2023-03-27T01:34:20.970Z,41.05
2023-03-27T01:37:37.800Z,41.08
2023-03-27T01:40:46.335Z,41.14
2023-03-27T01:43:54.354Z,41.14
2023-03-27T01:47:02.174Z,40.86
2023-03-27T01:50:09.676Z,41.05
2023-03-27T01:53:15.135Z,40.85
2023-03-27T01:56:26.428Z,41.13
2023-03-27T01:59:30.975Z,40.86
2023-03-27T02:02:34.583Z,40.98
2023-03-27T02:05:39.355Z,41.13
2023-03-27T02:08:47.011Z,40.88
2023-03-27T02:11:54.355Z,41.05
2023-03-27T02:15:23.502Z,40.76
2023-03-27T02:18:25.764Z,40.88
2023-03-27T02:21:31.361Z,40.94
2023-03-27T02:24:34.181Z,40.97
2023-03-27T02:27:42.251Z,41.15
2023-03-27T02:31:30.602Z,41.00
2023-03-27T02:34:22.642Z,41.10
2023-03-27T02:37:32.202Z,41.25
2023-03-27T02:40:42.064Z,41.04
2023-03-27T02:43:55.044Z,41.21
2023-03-27T02:47:08.872Z,41.10
2023-03-27T02:50:14.864Z,40.99
2023-03-27T02:53:20.381Z,41.06
2023-03-27T02:56:24.168Z,40.97
2023-03-27T02:59:35.580Z,40.99
2023-03-27T03:02:38.671Z,40.92
2023-03-27T03:05:42.091Z,41.10
2023-03-27T03:08:46.904Z,40.93
2023-03-27T03:11:52.280Z,41.10
2023-03-27T03:14:56.622Z,41.31
2023-03-27T03:17:59.899Z,41.26
2023-03-27T03:21:02.745Z,41.32
2023-03-27T03:24:05.706Z,41.31
2023-03-27T03:27:08.816Z,41.11
2023-03-27T03:30:16.934Z,41.32
2023-03-27T03:33:21.029Z,41.45
2023-03-27T03:36:24.034Z,41.38
2023-03-27T03:39:31.443Z,41.26
2023-03-27T03:42:35.750Z,41.26
2023-03-27T03:45:43.009Z,41.25
2023-03-27T03:48:45.871Z,41.23
2023-03-27T03:52:04.521Z,41.54
2023-03-27T03:55:11.414Z,41.30
2023-03-27T03:58:17.240Z,41.21
2023-03-27T04:01:21.398Z,41.27
2023-03-27T04:04:25.213Z,41.26
2023-03-27T04:07:31.459Z,41.20
2023-03-27T04:10:34.804Z,41.31
2023-03-27T04:13:37.661Z,41.22
2023-03-27T04:16:44.344Z,41.29
2023-03-27T04:19:48.139Z,41.39
2023-03-27T04:22:54.343Z,41.02
2023-03-27T04:26:00.171Z,41.23
2023-03-27T04:29:09.027Z,41.17
2023-03-27T04:32:13.117Z,40.86
2023-03-27T04:35:16.007Z,41.37
2023-03-27T04:38:19.635Z,41.19
2023-03-27T04:41:29.988Z,41.10
2023-03-27T04:44:34.972Z,40.91
2023-03-27T04:47:39.241Z,41.08
2023-03-27T04:50:44.179Z,41.02
2023-03-27T04:53:46.946Z,41.05
2023-03-27T04:56:49.750Z,41.06
2023-03-27T04:59:52.548Z,41.23
2023-03-27T05:02:57.728Z,41.03
2023-03-27T05:06:02.585Z,40.87
2023-03-27T05:09:06.124Z,41.05
2023-03-27T05:12:08.977Z,41.01
2023-03-27T05:15:14.113Z,40.91
2023-03-27T05:18:18.252Z,41.11
2023-03-27T05:21:21.190Z,40.98
2023-03-27T05:24:27.167Z,40.94
2023-03-27T05:27:29.977Z,41.11
2023-03-27T05:30:32.972Z,41.05
2023-03-27T05:33:38.999Z,41.09
2023-03-27T05:36:44.991Z,40.92
2023-03-27T05:39:49.572Z,40.97
2023-03-27T05:42:53.029Z,40.90
2023-03-27T05:45:57.443Z,40.78
2023-03-27T05:49:01.596Z,40.96
2023-03-27T05:52:06.342Z,41.02
2023-03-27T05:55:09.537Z,40.95
2023-03-27T05:58:13.483Z,40.89
2023-03-27T06:01:16.328Z,40.84
2023-03-27T06:04:22.208Z,40.96
2023-03-27T06:07:26.095Z,40.83
2023-03-27T06:10:33.680Z,40.79
2023-03-27T06:13:36.465Z,40.87
2023-03-27T06:16:40.256Z,40.79
2023-03-27T06:19:44.404Z,40.70
2023-03-27T06:22:48.074Z,40.76
2023-03-27T06:25:51.321Z,40.62
2023-03-27T06:28:58.464Z,40.74
2023-03-27T06:32:04.251Z,40.76
2023-03-27T06:35:14.755Z,40.58
2023-03-27T06:38:19.108Z,40.66
2023-03-27T06:41:23.999Z,40.52
2023-03-27T06:44:35.596Z,40.62
2023-03-27T06:47:44.453Z,40.56
2023-03-27T06:50:58.924Z,40.81
2023-03-27T06:54:04.737Z,41.10
2023-03-27T06:57:08.850Z,40.66
2023-03-27T07:00:19.201Z,40.72
2023-03-27T07:03:22.978Z,40.74
2023-03-27T07:06:29.076Z,40.70
2023-03-27T07:09:31.824Z,40.73
2023-03-27T07:12:34.657Z,40.61
2023-03-27T07:15:39.195Z,40.65
2023-03-27T07:18:43.011Z,40.48
2023-03-27T07:21:47.213Z,40.51
2023-03-27T07:24:51.500Z,40.57
2023-03-27T07:27:58.646Z,40.45
2023-03-27T07:31:10.431Z,40.61
2023-03-27T07:34:19.383Z,40.31
2023-03-27T07:37:23.902Z,40.13
2023-03-27T07:40:38.836Z,40.50
2023-03-27T07:43:43.068Z,40.33
2023-03-27T07:46:45.915Z,40.23
2023-03-27T07:49:49.855Z,40.40
2023-03-27T07:52:54.016Z,40.26
2023-03-27T07:55:59.149Z,40.34
2023-03-27T07:59:04.047Z,40.17
2023-03-27T08:02:07.145Z,40.43
2023-03-27T08:05:14.936Z,40.12
2023-03-27T08:08:19.207Z,40.21
2023-03-27T08:11:30.338Z,40.20
2023-03-27T08:14:36.779Z,40.10
2023-03-27T08:17:39.769Z,40.20
2023-03-27T08:20:45.711Z,40.19
2023-03-27T08:23:49.946Z,40.04
2023-03-27T08:26:52.708Z,40.12
2023-03-27T08:29:57.474Z,39.98
2023-03-27T08:33:02.482Z,40.24
2023-03-27T08:36:06.780Z,40.07
2023-03-27T08:39:14.954Z,40.01
2023-03-27T08:42:20.038Z,40.08
2023-03-27T08:45:25.697Z,40.09
2023-03-27T08:48:32.484Z,40.08
2023-03-27T08:51:37.324Z,39.96
2023-03-27T08:54:41.592Z,39.81
2023-03-27T08:57:44.378Z,39.80
2023-03-27T09:00:55.932Z,39.91
2023-03-27T09:04:01.966Z,40.14
2023-03-27T09:07:08.312Z,39.96
2023-03-27T09:10:20.047Z,40.16
2023-03-27T09:13:25.729Z,39.95
2023-03-27T09:16:30.770Z,40.18
2023-03-27T09:19:38.223Z,39.96
2023-03-27T09:22:45.954Z,39.83
2023-03-27T09:25:52.970Z,40.04
2023-03-27T09:28:57.691Z,39.82
2023-03-27T09:32:00.457Z,40.23
2023-03-27T09:35:04.645Z,39.92
2023-03-27T09:38:18.064Z,39.97
2023-03-27T09:41:24.812Z,39.94
2023-03-27T09:44:29.342Z,40.04
2023-03-27T09:47:33.886Z,39.79
2023-03-27T09:50:41.549Z,40.06
2023-03-27T09:53:57.576Z,39.69
2023-03-27T09:57:05.133Z,39.89
2023-03-27T10:00:15.451Z,39.85
2023-03-27T10:03:19.296Z,39.85
2023-03-27T10:06:30.298Z,40.06
2023-03-27T10:09:36.823Z,39.99
2023-03-27T10:12:41.592Z,39.98
2023-03-27T10:15:44.433Z,39.74
2023-03-27T10:18:48.549Z,39.92
2023-03-27T10:21:51.944Z,39.77
2023-03-27T10:24:55.058Z,39.89
2023-03-27T10:28:09.057Z,39.78
2023-03-27T10:31:26.723Z,39.64
2023-03-27T10:34:32.571Z,40.01
2023-03-27T10:37:35.456Z,39.82
2023-03-27T10:40:39.539Z,39.82
2023-03-27T10:43:44.849Z,39.87
2023-03-27T10:46:50.418Z,39.92
2023-03-27T10:50:00.632Z,39.96
2023-03-27T10:53:07.232Z,40.03
2023-03-27T10:56:12.349Z,39.76
2023-03-27T10:59:25.692Z,39.82
2023-03-27T11:02:40.340Z,39.89
2023-03-27T11:05:46.403Z,40.13
2023-03-27T11:08:54.361Z,38.79
2023-03-27T11:11:59.889Z,37.16
2023-03-27T11:15:10.809Z,37.08
2023-03-27T11:18:15.878Z,36.06
2023-03-27T11:21:26.797Z,35.46
2023-03-27T11:24:34.995Z,35.46
2023-03-27T11:27:44.065Z,35.12
2023-03-27T11:30:53.333Z,35.38
2023-03-27T11:33:57.632Z,35.82
2023-03-27T11:37:06.015Z,35.31
2023-03-27T11:40:13.941Z,35.51
2023-03-27T11:43:17.756Z,34.76
2023-03-27T11:46:30.763Z,34.62
2023-03-27T11:49:38.565Z,35.21
2023-03-27T11:52:48.870Z,35.22
2023-03-27T11:56:02.579Z,35.45
2023-03-27T11:59:12.930Z,36.48
2023-03-27T12:02:31.382Z,36.38
2023-03-27T12:05:38.608Z,36.51
2023-03-27T12:08:51.610Z,37.36
2023-03-27T12:11:59.448Z,38.62
2023-03-27T12:15:10.172Z,37.32
2023-03-27T12:18:32.320Z,37.79
2023-03-27T12:21:55.112Z,37.79
2023-03-27T12:25:16.934Z,37.58
2023-03-27T12:28:25.240Z,37.69
2023-03-27T12:31:32.709Z,38.18
2023-03-27T12:34:50.078Z,40.00
2023-03-27T12:37:58.381Z,39.41
2023-03-27T12:41:03.000Z,39.58
2023-03-27T12:44:06.935Z,39.30
2023-03-27T12:47:16.672Z,40.64
2023-03-27T12:50:22.405Z,40.63
2023-03-27T12:53:59.483Z,39.24
2023-03-27T12:57:06.746Z,39.78
2023-03-27T13:00:21.568Z,39.60
2023-03-27T13:03:42.361Z,39.21
2023-03-27T13:06:51.980Z,39.78
2023-03-27T13:10:03.648Z,39.47
2023-03-27T13:13:27.219Z,39.14
2023-03-27T13:16:40.716Z,38.21
2023-03-27T13:19:54.865Z,39.60
2023-03-27T13:23:09.700Z,38.42
2023-03-27T13:26:21.364Z,39.28
2023-03-27T13:29:25.506Z,38.99
2023-03-27T13:32:33.080Z,38.84
2023-03-27T13:35:40.841Z,38.66
2023-03-27T13:38:53.881Z,38.43
2023-03-27T13:42:10.959Z,38.34
2023-03-27T13:45:18.139Z,37.91
2023-03-27T13:48:38.938Z,37.70
2023-03-27T13:52:00.981Z,37.56
2023-03-27T13:55:31.295Z,38.20
2023-03-27T13:58:56.943Z,38.29
2023-03-27T14:02:04.916Z,37.78
2023-03-27T14:05:21.660Z,38.08
2023-03-27T14:08:32.975Z,37.52
2023-03-27T14:11:53.671Z,37.48
2023-03-27T14:15:10.631Z,37.65
2023-03-27T14:18:31.927Z,37.87
2023-03-27T14:21:49.999Z,37.52
2023-03-27T14:24:56.058Z,37.82
2023-03-27T14:27:58.807Z,37.54
2023-03-27T14:31:06.156Z,37.25
2023-03-27T14:34:16.648Z,37.59
2023-03-27T14:37:29.108Z,37.42
2023-03-27T14:40:33.505Z,37.76
2023-03-27T14:43:36.315Z,37.85
2023-03-27T14:46:40.688Z,37.57
2023-03-27T14:49:47.474Z,37.31
2023-03-27T14:52:53.400Z,35.99
2023-03-27T14:55:57.395Z,35.83
2023-03-27T14:59:01.636Z,35.67
2023-03-27T15:02:07.418Z,35.68
2023-03-27T15:05:12.337Z,35.96
2023-03-27T15:08:19.781Z,35.87
2023-03-27T15:11:24.000Z,35.93
2023-03-27T15:14:27.666Z,35.83
2023-03-27T15:17:38.810Z,35.78
2023-03-27T15:20:41.850Z,35.95
2023-03-27T15:23:47.703Z,35.80
2023-03-27T15:26:51.949Z,36.09
2023-03-27T15:29:57.979Z,36.15
2023-03-27T15:33:04.417Z,36.41
2023-03-27T15:36:10.320Z,36.26
2023-03-27T15:39:21.204Z,36.62
2023-03-27T15:42:24.020Z,37.00
2023-03-27T15:45:35.556Z,37.00
2023-03-27T15:48:43.045Z,37.15
2023-03-27T15:51:45.837Z,37.32
2023-03-27T15:54:54.411Z,37.18
2023-03-27T15:57:59.145Z,37.67
2023-03-27T16:01:03.442Z,37.40
2023-03-27T16:04:27.963Z,37.89
2023-03-27T16:07:44.396Z,37.52
2023-03-27T16:10:48.678Z,37.79
2023-03-27T16:13:54.842Z,37.48
2023-03-27T16:17:11.377Z,37.57
2023-03-27T16:20:42.284Z,37.93
2023-03-27T16:23:45.105Z,37.79
2023-03-27T16:26:48.206Z,37.73
2023-03-27T16:29:51.508Z,37.63
2023-03-27T16:32:54.299Z,37.93
2023-03-27T16:35:58.942Z,38.21
2023-03-27T16:39:04.276Z,37.63
2023-03-27T16:42:11.862Z,37.76
2023-03-27T16:45:14.612Z,38.03
2023-03-27T16:48:17.410Z,37.78
2023-03-27T16:51:22.710Z,37.71
2023-03-27T16:54:26.859Z,38.12
2023-03-27T16:57:29.674Z,37.91
2023-03-27T17:00:35.235Z,38.33
2023-03-27T17:03:38.294Z,38.26
2023-03-27T17:06:42.676Z,38.15
2023-03-27T17:09:45.369Z,38.37
2023-03-27T17:12:48.164Z,38.26
2023-03-27T17:15:51.313Z,38.41
2023-03-27T17:18:55.784Z,38.40
2023-03-27T17:22:01.275Z,38.30
2023-03-27T17:25:05.809Z,39.16
2023-03-27T17:28:08.902Z,40.41
2023-03-27T17:31:12.595Z,39.50
2023-03-27T17:34:15.451Z,39.66
2023-03-27T17:37:19.736Z,40.04
2023-03-27T17:40:22.526Z,39.68
2023-03-27T17:43:25.320Z,39.62
2023-03-27T17:46:28.055Z,39.38
2023-03-27T17:49:31.890Z,39.69
2023-03-27T17:52:38.182Z,39.65
2023-03-27T17:55:43.876Z,39.84
2023-03-27T17:58:48.905Z,39.53
2023-03-27T18:01:51.764Z,39.68
2023-03-27T18:04:56.457Z,39.66
2023-03-27T18:08:00.642Z,39.63
2023-03-27T18:11:04.519Z,39.70
2023-03-27T18:14:07.766Z,39.91
2023-03-27T18:17:10.919Z,39.47
2023-03-27T18:20:15.353Z,39.66
2023-03-27T18:23:19.565Z,39.16
2023-03-27T18:26:23.548Z,39.69
2023-03-27T18:29:26.339Z,39.69
2023-03-27T18:32:29.145Z,39.50
2023-03-27T18:35:36.058Z,39.62
2023-03-27T18:38:40.894Z,39.38
2023-03-27T18:41:43.725Z,39.64
2023-03-27T18:44:49.210Z,39.66
2023-03-27T18:47:54.185Z,39.72
2023-03-27T18:50:57.447Z,39.64
2023-03-27T18:54:03.496Z,39.97
2023-03-27T18:57:09.356Z,40.09
2023-03-27T19:00:28.943Z,39.96
2023-03-27T19:03:35.028Z,40.06
2023-03-27T19:06:40.694Z,39.93
2023-03-27T19:09:50.758Z,40.01
2023-03-27T19:12:53.571Z,40.17
2023-03-27T19:15:56.386Z,40.09
2023-03-27T19:18:59.153Z,40.11
2023-03-27T19:22:01.912Z,39.76
2023-03-27T19:25:07.717Z,39.81
2023-03-27T19:28:10.456Z,39.54
2023-03-27T19:31:13.543Z,40.03
2023-03-27T19:34:18.489Z,40.16
2023-03-27T19:37:21.332Z,39.93
2023-03-27T19:40:25.598Z,40.04
2023-03-27T19:43:30.757Z,39.98
2023-03-27T19:46:33.485Z,39.98
2023-03-27T19:49:36.293Z,40.17
2023-03-27T19:52:39.121Z,40.13
2023-03-27T19:55:44.281Z,39.96
2023-03-27T19:58:47.052Z,40.04
2023-03-27T20:01:50.227Z,40.11
2023-03-27T20:04:53.022Z,40.09
2023-03-27T20:07:56.947Z,40.13
2023-03-27T20:11:01.600Z,39.87
2023-03-27T20:14:04.568Z,40.28
2023-03-27T20:17:21.376Z,40.19
2023-03-27T20:20:30.219Z,40.07
2023-03-27T20:23:33.345Z,40.27
2023-03-27T20:26:41.113Z,40.09
2023-03-27T20:29:43.857Z,40.17
2023-03-27T20:32:49.470Z,40.34
2023-03-27T20:35:52.409Z,40.24
2023-03-27T20:39:00.214Z,40.12
2023-03-27T20:42:04.493Z,40.11
2023-03-27T20:45:08.045Z,40.21
2023-03-27T20:48:15.085Z,40.27
2023-03-27T20:51:18.125Z,39.99
2023-03-27T20:54:21.267Z,40.31
2023-03-27T20:57:26.418Z,40.12
2023-03-27T21:00:30.281Z,40.02
2023-03-27T21:03:35.169Z,40.24
2023-03-27T21:06:38.052Z,40.21
2023-03-27T21:09:40.926Z,40.24
2023-03-27T21:12:45.061Z,40.02
2023-03-27T21:15:47.825Z,40.29
2023-03-27T21:18:50.862Z,40.07
2023-03-27T21:21:53.718Z,40.10
2023-03-27T21:24:57.485Z,39.99
2023-03-27T21:28:01.730Z,40.17
2023-03-27T21:31:06.960Z,40.18
2023-03-27T21:34:09.936Z,40.32
2023-03-27T21:37:12.981Z,40.38
2023-03-27T21:40:17.700Z,40.26
2023-03-27T21:43:22.291Z,40.41
2023-03-27T21:46:25.180Z,40.46
2023-03-27T21:49:28.113Z,40.39
2023-03-27T21:52:33.440Z,40.38
2023-03-27T21:55:37.481Z,40.20
2023-03-27T21:58:41.605Z,40.48
2023-03-27T22:01:44.436Z,40.51
2023-03-27T22:04:47.310Z,40.25
2023-03-27T22:07:50.174Z,40.43
2023-03-27T22:11:02.024Z,40.42
2023-03-27T22:14:06.285Z,40.47
2023-03-27T22:17:09.052Z,40.32
2023-03-27T22:20:12.245Z,40.24
2023-03-27T22:23:15.069Z,40.16
2023-03-27T22:26:17.845Z,40.25
2023-03-27T22:29:24.153Z,40.33
2023-03-27T22:32:32.874Z,41.00
2023-03-27T22:35:36.927Z,41.01
2023-03-27T22:38:41.580Z,40.77
2023-03-27T22:41:44.415Z,41.00
2023-03-27T22:44:49.928Z,40.80
2023-03-27T22:47:54.278Z,41.07
2023-03-27T22:51:00.290Z,40.88
2023-03-27T22:54:03.398Z,40.98
2023-03-27T22:57:06.364Z,41.33
2023-03-27T23:00:11.350Z,40.91
2023-03-27T23:03:14.448Z,40.86
2023-03-27T23:06:22.250Z,40.83
2023-03-27T23:09:25.007Z,40.82
2023-03-27T23:12:29.094Z,40.83
2023-03-27T23:15:33.356Z,40.65
2023-03-27T23:18:36.117Z,40.51
2023-03-27T23:21:38.912Z,40.69
2023-03-27T23:24:43.191Z,40.50
2023-03-27T23:27:45.938Z,40.46
2023-03-27T23:30:56.893Z,40.71
2023-03-27T23:33:59.713Z,40.83
2023-03-27T23:37:02.501Z,40.56
2023-03-27T23:40:12.905Z,40.54
2023-03-27T23:43:15.637Z,40.75
2023-03-27T23:46:21.053Z,40.56
2023-03-27T23:49:23.884Z,40.56
2023-03-27T23:52:43.451Z,40.68
2023-03-27T23:55:49.645Z,40.69
2023-03-27T23:58:54.214Z,40.83
